Time;durP1;ratioP1;P1;durP2;ratioP2;P2;SDS_P1;SDS_P2;PMS_P1;PMS_P2;Temp;Humidity;BMP_temperature;BMP_pressure;BME280_temperature;BME280_humidity;BME280_pressure;Samples;Min_cycle;Max_cycle;Signal;HPM_P1;HPM_P2
2021/12/12 00:01:32;;;;;;;43.35;20.85;;;4.10;99.90;;;;;;4955506;28;20079;-70
2021/12/12 00:04:11;;;;;;;43.55;19.13;;;4.30;99.90;;;;;;4955427;29;20043;-70
2021/12/12 00:06:50;;;;;;;56.83;22.95;;;4.10;99.90;;;;;;4955400;28;20129;-70
2021/12/12 00:09:33;;;;;;;44.15;20.73;;;4.30;99.90;;;;;;4955344;28;20058;-70
2021/12/12 00:12:04;;;;;;;41.47;19.88;;;4.30;99.90;;;;;;4939435;29;20051;-70
2021/12/12 00:14:33;;;;;;;46.55;20.17;;;4.40;99.90;;;;;;4955238;28;20102;-70
2021/12/12 00:16:59;;;;;;;54.55;22.50;;;;;;;;;;4955108;28;20039;-70
2021/12/12 00:19:27;;;;;;;48.53;22.42;;;;;;;;;;4955606;28;20042;-70
2021/12/12 00:21:59;;;;;;;50.25;22.08;;;4.10;99.90;;;;;;4955138;28;20511;-70
2021/12/12 00:24:25;;;;;;;44.57;22.20;;;;;;;;;;4955187;29;20039;-70
2021/12/12 00:26:53;;;;;;;48.58;21.40;;;;;;;;;;4955325;29;20683;-70
2021/12/12 00:29:21;;;;;;;51.45;22.65;;;4.30;99.90;;;;;;4939056;29;20054;-70
2021/12/12 00:31:50;;;;;;;49.03;22.42;;;3.30;99.90;;;;;;4954981;28;20047;-70
2021/12/12 00:34:16;;;;;;;54.10;22.15;;;;;;;;;;4954808;28;20082;-70
2021/12/12 00:36:43;;;;;;;44.15;21.95;;;;;;;;;;4954876;28;20046;-70
2021/12/12 00:39:16;;;;;;;52.28;21.98;;;4.80;99.90;;;;;;4954622;29;20122;-73
2021/12/12 00:41:56;;;;;;;54.60;23.38;;;4.30;99.90;;;;;;4939052;29;20095;-73
2021/12/12 00:44:23;;;;;;;47.03;22.20;;;4.20;99.90;;;;;;4953906;28;20036;-74
2021/12/12 00:46:50;;;;;;;42.95;21.98;;;;;;;;;;4954533;28;20515;-74
2021/12/12 00:49:16;;;;;;;43.78;21.02;;;;;;;;;;4938865;29;20440;-74
2021/12/12 00:51:44;;;;;;;50.72;22.17;;;4.30;99.90;;;;;;4954583;28;20059;-74
2021/12/12 00:54:11;;;;;;;47.42;22.25;;;4.10;99.90;;;;;;4954697;29;20043;-74
2021/12/12 00:56:38;;;;;;;49.15;22.58;;;4.40;99.90;;;;;;4954537;29;20043;-74
2021/12/12 00:59:05;;;;;;;48.65;22.08;;;4.40;99.90;;;;;;4954472;28;20126;-75
2021/12/12 01:01:36;;;;;;;55.35;22.33;;;4.40;99.90;;;;;;4954445;28;20126;-74
2021/12/12 01:04:18;;;;;;;49.20;22.02;;;;;;;;;;4954502;29;20043;-74
2021/12/12 01:06:46;;;;;;;53.95;23.15;;;4.40;99.90;;;;;;4954533;28;20126;-73
2021/12/12 01:09:20;;;;;;;50.08;22.55;;;4.20;99.90;;;;;;4938788;29;20043;-74
2021/12/12 01:11:49;;;;;;;45.47;22.58;;;4.60;99.90;;;;;;4938532;29;20051;-73
2021/12/12 01:14:17;;;;;;;55.13;23.25;;;;;;;;;;4954548;29;20049;-73
2021/12/12 01:16:50;;;;;;;46.38;21.98;;;4.30;99.90;;;;;;4954226;28;20043;-73
2021/12/12 01:19:25;;;;;;;49.47;22.58;;;4.00;99.90;;;;;;4954251;29;20054;-73
2021/12/12 01:21:55;;;;;;;54.45;23.85;;;4.30;99.90;;;;;;4954215;28;20047;-73
2021/12/12 01:24:26;;;;;;;46.10;22.73;;;4.20;99.90;;;;;;4954379;29;20059;-73
2021/12/12 01:26:55;;;;;;;49.08;23.83;;;4.20;99.90;;;;;;4954194;28;20050;-72
2021/12/12 01:29:21;;;;;;;48.17;22.05;;;;;;;;;;4954168;28;20043;-72
2021/12/12 01:31:48;;;;;;;51.20;24.05;;;4.50;99.90;;;;;;4954014;28;20439;-72
2021/12/12 01:34:24;;;;;;;55.70;22.42;;;4.40;99.90;;;;;;4954012;28;20110;-72
2021/12/12 01:39:34;;;;;;;48.47;23.10;;;4.90;99.90;;;;;;4969954;28;20134;-73
2021/12/12 01:42:07;;;;;;;45.47;22.27;;;4.60;99.90;;;;;;4938049;29;20039;-73
2021/12/12 01:44:40;;;;;;;49.88;22.80;;;4.60;99.90;;;;;;4954122;28;20071;-73
2021/12/12 01:47:34;;;;;;;47.13;21.67;;;5.00;99.90;;;;;;4938233;29;20039;-73
2021/12/12 01:50:04;;;;;;;53.72;23.20;;;4.50;99.90;;;;;;4954093;29;20118;-73
2021/12/12 01:52:32;;;;;;;47.47;22.08;;;4.40;99.90;;;;;;4954143;28;20046;-72
2021/12/12 01:55:24;;;;;;;54.72;23.83;;;4.20;99.90;;;;;;4955057;28;20043;-72
2021/12/12 01:57:53;;;;;;;53.42;23.40;;;4.40;99.90;;;;;;4957623;28;20491;-72
2021/12/12 02:00:41;;;;;;;57.67;23.13;;;4.50;99.90;;;;;;4957760;29;20121;-72
2021/12/12 02:03:10;;;;;;;44.17;22.48;;;4.30;99.90;;;;;;4957727;28;20043;-72
2021/12/12 02:05:37;;;;;;;50.28;22.17;;;3.90;99.90;;;;;;4957579;29;20502;-72
2021/12/12 02:08:07;;;;;;;52.42;22.33;;;4.50;99.90;;;;;;4957683;28;20032;-72
2021/12/12 02:10:46;;;;;;;54.65;21.70;;;4.40;99.90;;;;;;4957577;28;20047;-72
2021/12/12 02:13:16;;;;;;;40.78;21.38;;;4.50;99.90;;;;;;4957610;29;20085;-73
2021/12/12 02:15:45;;;;;;;49.22;21.67;;;4.60;99.90;;;;;;4957539;28;20051;-73
2021/12/12 02:18:15;;;;;;;48.40;21.30;;;4.50;99.90;;;;;;4957437;29;20043;-72
2021/12/12 02:20:57;;;;;;;48.80;22.35;;;4.60;99.90;;;;;;4957336;28;20134;-72
2021/12/12 02:23:38;;;;;;;51.72;20.88;;;;;;;;;;4957298;28;20102;-73
2021/12/12 02:37:07;;;;;;;55.22;20.75;;;4.50;99.90;;;;;;4973175;28;20190;-72
2021/12/12 02:39:36;;;;;;;47.47;21.30;;;4.70;99.90;;;;;;4973026;28;20051;-72
2021/12/12 02:42:08;;;;;;;43.17;20.63;;;4.00;99.90;;;;;;4956873;28;20043;-72
2021/12/12 02:44:37;;;;;;;51.63;20.17;;;4.60;99.90;;;;;;4957194;29;20396;-72
2021/12/12 02:47:14;;;;;;;40.75;20.50;;;4.70;99.90;;;;;;4957104;29;20039;-72
2021/12/12 02:52:20;;;;;;;44.85;20.73;;;4.70;99.90;;;;;;4973155;28;20043;-72
2021/12/12 02:54:47;;;;;;;46.92;19.85;;;5.00;99.90;;;;;;4956718;28;20043;-73
2021/12/12 02:57:14;;;;;;;53.95;22.83;;;4.90;99.90;;;;;;4956605;28;20095;-73
2021/12/12 02:59:42;;;;;;;44.28;19.83;;;5.30;99.90;;;;;;4956636;28;20094;-73
2021/12/12 03:02:14;;;;;;;47.10;19.67;;;4.90;99.90;;;;;;4956720;28;20047;-73
2021/12/12 03:04:40;;;;;;;41.38;18.92;;;;;;;;;;4956769;28;20106;-73
2021/12/12 03:07:08;;;;;;;40.38;19.17;;;5.00;99.90;;;;;;4955652;28;20047;-73
2021/12/12 03:09:51;;;;;;;43.35;20.15;;;4.70;99.90;;;;;;4940611;29;20066;-73
2021/12/12 03:12:31;;;;;;;38.00;20.08;;;4.70;99.90;;;;;;4956367;28;20122;-73
2021/12/12 03:15:00;;;;;;;39.53;19.42;;;4.70;99.90;;;;;;4956329;28;20039;-72
2021/12/12 03:17:26;;;;;;;46.08;19.75;;;;;;;;;;4956328;28;20039;-72
2021/12/12 03:20:01;;;;;;;38.47;19.45;;;4.90;99.90;;;;;;4956557;29;20043;-73
2021/12/12 03:22:27;;;;;;;38.03;18.98;;;5.00;99.90;;;;;;4956739;28;20365;-73
2021/12/12 03:24:55;;;;;;;41.30;19.38;;;5.60;99.90;;;;;;4956215;29;20098;-73
2021/12/12 03:27:22;;;;;;;44.35;20.75;;;4.90;99.90;;;;;;4956334;28;20089;-73
2021/12/12 03:29:50;;;;;;;41.08;19.55;;;4.90;99.90;;;;;;4956314;29;20043;-73
2021/12/12 03:32:20;;;;;;;37.92;18.90;;;4.90;99.90;;;;;;4956086;29;20558;-73
2021/12/12 03:34:56;;;;;;;40.33;19.10;;;5.10;99.90;;;;;;4956418;29;20050;-73
2021/12/12 03:37:24;;;;;;;38.88;19.92;;;5.10;99.90;;;;;;4956059;28;20090;-72
2021/12/12 03:39:54;;;;;;;39.67;19.02;;;5.10;99.90;;;;;;4955868;29;20058;-73
2021/12/12 03:42:22;;;;;;;36.85;18.40;;;5.20;99.90;;;;;;4956225;28;20392;-73
2021/12/12 03:44:49;;;;;;;33.83;18.95;;;;;;;;;;4956118;29;20069;-73
2021/12/12 03:47:20;;;;;;;33.58;18.40;;;5.20;99.90;;;;;;4955863;29;20047;-73
2021/12/12 03:49:46;;;;;;;35.40;18.15;;;;;;;;;;4955946;28;20563;-73
2021/12/12 03:52:17;;;;;;;36.90;17.77;;;5.00;99.90;;;;;;4955856;28;20047;-73
2021/12/12 03:54:45;;;;;;;34.30;17.83;;;5.20;99.90;;;;;;4971765;28;20570;-73
2021/12/12 03:57:11;;;;;;;38.05;19.17;;;;;;;;;;4955869;29;20069;-73
2021/12/12 03:59:37;;;;;;;38.67;18.10;;;;;;;;;;4939755;29;20039;-73
2021/12/12 04:02:04;;;;;;;33.70;17.52;;;4.70;99.90;;;;;;4955629;28;20131;-73
2021/12/12 04:04:35;;;;;;;37.05;17.63;;;5.10;99.90;;;;;;4955231;29;20050;-73
2021/12/12 04:07:03;;;;;;;32.50;17.80;;;;;;;;;;4955538;28;20571;-73
2021/12/12 04:09:29;;;;;;;31.70;17.52;;;4.70;99.90;;;;;;4955601;29;20075;-73
2021/12/12 04:11:59;;;;;;;32.40;17.17;;;5.20;99.90;;;;;;4955270;29;20475;-73
2021/12/12 04:14:26;;;;;;;35.47;16.23;;;5.40;99.90;;;;;;4955521;28;20050;-73
2021/12/12 04:16:55;;;;;;;30.65;16.23;;;5.30;99.90;;;;;;4955121;28;20078;-73
2021/12/12 04:19:21;;;;;;;28.27;16.48;;;;;;;;;;4939002;28;20400;-73
2021/12/12 04:21:48;;;;;;;25.33;15.63;;;;;;;;;;4955222;28;20043;-73
2021/12/12 04:24:26;;;;;;;24.58;15.05;;;5.50;99.90;;;;;;4955411;28;20094;-73
2021/12/12 04:26:53;;;;;;;31.80;16.05;;;5.30;99.90;;;;;;4955186;28;20043;-73
2021/12/12 04:29:24;;;;;;;30.40;15.90;;;5.40;99.90;;;;;;4955010;29;20055;-73
2021/12/12 04:31:53;;;;;;;24.95;14.95;;;5.50;99.90;;;;;;4955423;28;20047;-73
2021/12/12 04:34:22;;;;;;;29.92;16.02;;;5.20;99.90;;;;;;4955068;28;20047;-72
2021/12/12 04:36:49;;;;;;;31.17;15.73;;;5.30;99.90;;;;;;4954970;28;20051;-72
2021/12/12 04:39:25;;;;;;;23.30;15.15;;;5.40;99.90;;;;;;4954660;29;20130;-72
2021/12/12 04:41:56;;;;;;;26.13;14.60;;;6.20;99.90;;;;;;4954939;28;20086;-72
2021/12/12 04:44:27;;;;;;;28.60;15.32;;;5.50;99.90;;;;;;4954832;28;20043;-72
2021/12/12 04:50:05;;;;;;;28.20;15.48;;;5.50;99.90;;;;;;4971026;28;20113;-72
2021/12/12 04:52:37;;;;;;;28.27;15.40;;;;;;;;;;4954626;28;20045;-72
2021/12/12 04:55:12;;;;;;;24.77;15.13;;;5.50;99.90;;;;;;4954618;28;20035;-72
2021/12/12 04:57:56;;;;;;;28.90;15.75;;;5.90;99.90;;;;;;4954425;28;20039;-72
2021/12/12 05:00:29;;;;;;;28.50;15.45;;;5.50;99.90;;;;;;4954917;28;20047;-72
2021/12/12 05:03:18;;;;;;;24.25;14.75;;;5.60;99.90;;;;;;4954394;28;20126;-72
2021/12/12 05:05:50;;;;;;;28.95;15.90;;;;;;;;;;4954807;28;20428;-72
2021/12/12 05:08:26;;;;;;;26.23;15.60;;;5.40;99.90;;;;;;4938552;28;20074;-72
2021/12/12 05:11:23;;;;;;;24.73;15.25;;;5.40;99.90;;;;;;4938664;29;20650;-72
2021/12/12 05:14:05;;;;;;;26.55;14.98;;;5.70;99.90;;;;;;4953919;28;20062;-72
2021/12/12 05:16:37;;;;;;;25.63;14.48;;;5.50;99.90;;;;;;4954224;29;20562;-72
2021/12/12 05:19:18;;;;;;;27.13;15.98;;;5.80;99.90;;;;;;4954272;28;20043;-72
2021/12/12 05:21:49;;;;;;;25.13;14.88;;;5.50;99.90;;;;;;4938434;29;20043;-72
2021/12/12 05:24:18;;;;;;;29.13;15.27;;;5.50;99.90;;;;;;4954427;29;20051;-72
2021/12/12 05:27:08;;;;;;;26.95;15.80;;;5.00;99.90;;;;;;4954283;28;20130;-72
2021/12/12 05:29:37;;;;;;;25.92;16.00;;;;;;;;;;4953931;28;20083;-72
2021/12/12 05:32:06;;;;;;;28.33;15.70;;;6.00;99.90;;;;;;4954261;29;20046;-72
2021/12/12 05:34:36;;;;;;;28.23;15.90;;;5.60;99.90;;;;;;4938056;29;20058;-72
2021/12/12 05:37:03;;;;;;;30.05;16.00;;;4.70;99.90;;;;;;4938100;29;20043;-72
2021/12/12 05:39:31;;;;;;;26.73;15.43;;;5.60;99.90;;;;;;4953836;28;20059;-72
2021/12/12 05:41:58;;;;;;;28.25;16.05;;;;;;;;;;4954141;29;20519;-72
2021/12/12 05:44:27;;;;;;;24.10;14.82;;;5.70;99.90;;;;;;4954233;28;20128;-72
2021/12/12 05:46:55;;;;;;;24.98;15.95;;;5.00;99.90;;;;;;4954070;28;20126;-74
2021/12/12 05:49:21;;;;;;;26.48;15.40;;;;;;;;;;4954001;28;20055;-73
2021/12/12 05:51:47;;;;;;;25.48;15.05;;;6.00;99.90;;;;;;4954549;28;20102;-73
2021/12/12 05:54:13;;;;;;;27.73;15.85;;;;;;;;;;4954361;29;20471;-73
2021/12/12 05:56:40;;;;;;;28.25;15.20;;;;;;;;;;4954016;29;20043;-73
2021/12/12 05:59:09;;;;;;;30.60;16.50;;;5.20;99.90;;;;;;4953823;29;20083;-73
2021/12/12 06:01:38;;;;;;;27.75;15.90;;;;;;;;;;4953719;28;20399;-73
2021/12/12 06:04:04;;;;;;;30.25;16.92;;;5.60;99.90;;;;;;4938166;29;20114;-73
2021/12/12 06:06:35;;;;;;;32.15;16.85;;;5.50;99.90;;;;;;4937941;29;20047;-73
2021/12/12 06:09:05;;;;;;;35.30;17.95;;;5.70;99.90;;;;;;4954188;29;20043;-73
2021/12/12 06:11:33;;;;;;;31.00;17.75;;;5.40;99.90;;;;;;4953833;28;20183;-73
2021/12/12 06:14:01;;;;;;;31.20;17.83;;;5.60;99.90;;;;;;4953765;28;20051;-73
2021/12/12 06:16:30;;;;;;;34.08;18.58;;;6.20;99.90;;;;;;4953801;28;20058;-73
2021/12/12 06:19:01;;;;;;;32.53;17.83;;;5.60;99.90;;;;;;4953744;29;20051;-73
2021/12/12 06:21:27;;;;;;;32.92;18.40;;;5.70;99.90;;;;;;4953732;28;20057;-73
2021/12/12 06:23:54;;;;;;;28.27;16.48;;;6.50;99.90;;;;;;4954128;28;20065;-73
2021/12/12 06:26:21;;;;;;;30.45;17.38;;;5.70;99.90;;;;;;4953967;28;20392;-73
2021/12/12 06:28:48;;;;;;;31.85;17.77;;;5.90;99.90;;;;;;4953678;29;20082;-73
2021/12/12 06:31:14;;;;;;;38.22;18.67;;;;;;;;;;4953566;28;20408;-73
2021/12/12 06:33:41;;;;;;;32.40;17.50;;;5.90;99.90;;;;;;4953573;29;20051;-73
2021/12/12 06:36:10;;;;;;;32.72;17.65;;;5.90;99.90;;;;;;4953606;28;20051;-73
2021/12/12 06:38:38;;;;;;;33.22;18.48;;;;;;;;;;4953460;28;20502;-73
2021/12/12 06:41:05;;;;;;;38.97;18.73;;;6.00;99.90;;;;;;4953640;28;20563;-73
2021/12/12 06:43:33;;;;;;;31.38;16.77;;;6.00;99.90;;;;;;4956538;28;20495;-73
2021/12/12 06:45:59;;;;;;;37.13;18.23;;;5.80;99.90;;;;;;4957290;28;20428;-73
2021/12/12 06:48:26;;;;;;;32.33;17.80;;;5.90;99.90;;;;;;4957107;29;20066;-73
2021/12/12 06:50:55;;;;;;;35.92;17.70;;;5.80;99.90;;;;;;4956865;28;20051;-73
2021/12/12 06:53:24;;;;;;;37.85;18.92;;;5.90;99.90;;;;;;4957184;28;20047;-73
2021/12/12 06:55:51;;;;;;;39.25;19.35;;;6.50;99.90;;;;;;4956991;28;20170;-73
2021/12/12 06:58:19;;;;;;;38.22;18.48;;;6.10;99.90;;;;;;4956586;28;20043;-73
2021/12/12 07:00:48;;;;;;;38.22;18.73;;;6.10;99.90;;;;;;4956679;29;20040;-73
2021/12/12 07:03:17;;;;;;;41.95;19.25;;;6.20;99.90;;;;;;4956647;29;20043;-73
2021/12/12 07:05:43;;;;;;;43.45;18.17;;;;;;;;;;4956838;28;20126;-73
2021/12/12 07:08:10;;;;;;;42.58;19.38;;;6.00;99.90;;;;;;4956778;28;20519;-73
2021/12/12 07:10:36;;;;;;;42.05;19.83;;;6.10;99.90;;;;;;4956556;29;20102;-72
2021/12/12 07:13:03;;;;;;;47.65;19.42;;;;;;;;;;4956504;28;20043;-72
2021/12/12 07:15:42;;;;;;;46.28;19.88;;;6.10;99.90;;;;;;4956512;28;20130;-72
2021/12/12 07:18:11;;;;;;;42.42;18.33;;;;;;;;;;4956234;28;20039;-72
2021/12/12 07:20:37;;;;;;;44.05;19.95;;;;;;;;;;4956618;29;20037;-72
2021/12/12 07:23:05;;;;;;;54.25;19.77;;;;;;;;;;4940379;29;20062;-72
2021/12/12 07:25:33;;;;;;;49.25;18.90;;;6.20;99.90;;;;;;4956551;28;20106;-72
2021/12/12 07:28:00;;;;;;;46.72;19.75;;;6.20;99.90;;;;;;4956511;29;20046;-72
2021/12/12 07:30:26;;;;;;;50.00;19.90;;;;;;;;;;4956085;29;20079;-72
2021/12/12 07:32:53;;;;;;;44.97;20.25;;;6.30;99.90;;;;;;4940276;29;20082;-72
2021/12/12 07:35:19;;;;;;;45.22;19.38;;;;;;;;;;4955949;28;20047;-72
2021/12/12 07:37:45;;;;;;;45.03;19.58;;;7.00;99.90;;;;;;4955914;28;20134;-72
2021/12/12 07:40:12;;;;;;;48.85;19.83;;;5.50;99.90;;;;;;4955816;28;20055;-72
2021/12/12 07:42:38;;;;;;;45.78;19.83;;;;;;;;;;4939933;29;20130;-72
2021/12/12 07:45:08;;;;;;;57.25;21.55;;;7.10;99.90;;;;;;4955874;28;20047;-72
2021/12/12 07:47:34;;;;;;;56.85;21.25;;;7.10;99.90;;;;;;4940175;28;20102;-73
2021/12/12 07:50:06;;;;;;;54.78;20.92;;;5.70;99.90;;;;;;4955997;29;20089;-73
2021/12/12 07:52:32;;;;;;;56.40;20.88;;;;;;;;;;4955252;28;20087;-73
2021/12/12 07:54:59;;;;;;;45.55;20.35;;;6.30;99.90;;;;;;4955659;28;20047;-73
2021/12/12 07:57:29;;;;;;;47.63;20.13;;;6.50;99.90;;;;;;4955499;29;20043;-73
2021/12/12 07:59:57;;;;;;;46.42;20.60;;;6.40;99.90;;;;;;4955507;29;20123;-73
2021/12/12 08:02:24;;;;;;;50.80;20.48;;;;;;;;;;4956180;28;20035;-73
2021/12/12 08:04:51;;;;;;;45.13;20.27;;;6.30;99.90;;;;;;4939834;29;20045;-73
2021/12/12 08:07:20;;;;;;;49.20;20.70;;;7.00;99.90;;;;;;4955316;28;20468;-73
2021/12/12 08:09:47;;;;;;;52.50;21.00;;;6.60;99.90;;;;;;4955438;29;20122;-73
2021/12/12 08:12:20;;;;;;;58.85;21.55;;;6.50;99.90;;;;;;4955191;29;20046;-73
2021/12/12 08:14:47;;;;;;;49.67;20.65;;;6.60;99.90;;;;;;4955314;28;20079;-73
2021/12/12 08:17:16;;;;;;;49.80;20.52;;;6.90;99.90;;;;;;4955263;28;20043;-73
2021/12/12 08:19:42;;;;;;;54.17;21.88;;;6.80;99.90;;;;;;4955220;28;20519;-73
2021/12/12 08:22:10;;;;;;;63.38;22.95;;;7.10;99.90;;;;;;4939190;29;20091;-73
2021/12/12 08:24:38;;;;;;;57.13;22.40;;;6.50;99.90;;;;;;4955152;29;20035;-73
2021/12/12 08:27:05;;;;;;;61.58;22.98;;;6.60;99.90;;;;;;4954972;28;20488;-73
2021/12/12 08:29:33;;;;;;;62.80;23.30;;;6.50;99.90;;;;;;4955398;28;20377;-73
2021/12/12 08:32:08;;;;;;;66.30;23.13;;;6.70;99.90;;;;;;4955037;28;20064;-73
2021/12/12 08:34:34;;;;;;;70.00;24.15;;;6.70;99.90;;;;;;4955236;28;20051;-73
2021/12/12 08:37:01;;;;;;;68.72;24.25;;;;;;;;;;4954846;28;20039;-73
2021/12/12 08:39:28;;;;;;;78.10;24.98;;;6.60;99.90;;;;;;4954627;29;20047;-73
2021/12/12 08:41:58;;;;;;;71.97;24.08;;;6.70;99.90;;;;;;4954885;28;20059;-73
2021/12/12 08:44:24;;;;;;;61.55;22.75;;;6.60;99.90;;;;;;4938925;29;20038;-73
2021/12/12 08:46:52;;;;;;;68.85;23.92;;;6.00;99.90;;;;;;4955033;29;20119;-73
2021/12/12 08:49:22;;;;;;;73.53;24.45;;;6.40;99.90;;;;;;4954942;28;20101;-73
2021/12/12 08:51:54;;;;;;;77.05;26.33;;;6.80;99.90;;;;;;4954856;28;20047;-73
2021/12/12 08:54:27;;;;;;;;;;;6.70;99.90;;;;;;4955095;28;20039;-71
2021/12/12 08:57:20;;;;;;;76.28;24.75;;;6.90;99.90;;;;;;4954699;29;19918;-72
2021/12/12 08:59:48;;;;;;;75.25;25.05;;;6.90;99.90;;;;;;4954796;28;20177;-72
2021/12/12 09:02:17;;;;;;;79.18;25.73;;;6.80;99.90;;;;;;4970582;28;20082;-72
2021/12/12 09:04:57;;;;;;;71.10;24.85;;;6.80;99.90;;;;;;4954039;28;20043;-72
2021/12/12 09:07:28;;;;;;;70.90;24.08;;;7.00;99.90;;;;;;4954491;28;20050;-72
2021/12/12 09:10:26;;;;;;;77.35;24.33;;;6.40;99.90;;;;;;4954673;28;20387;-72
2021/12/12 09:13:06;;;;;;;67.32;23.33;;;7.50;99.90;;;;;;4954298;28;20047;-72
2021/12/12 09:15:46;;;;;;;78.03;24.25;;;7.00;99.90;;;;;;4954604;29;20055;-73
2021/12/12 09:18:24;;;;;;;81.65;24.75;;;6.90;99.90;;;;;;4938416;29;20051;-73
2021/12/12 09:21:14;;;;;;;78.22;24.85;;;6.50;99.90;;;;;;4938261;29;20043;-73
2021/12/12 09:23:48;;;;;;;90.15;25.70;;;7.30;99.90;;;;;;4954076;29;20392;-73
2021/12/12 09:26:23;;;;;;;81.60;24.42;;;7.10;99.90;;;;;;4955396;28;20097;-73
2021/12/12 09:29:00;;;;;;;82.15;24.77;;;7.30;99.90;;;;;;4954123;28;20047;-73
2021/12/12 09:31:28;;;;;;;82.68;24.65;;;7.10;99.90;;;;;;4954338;29;20043;-73
2021/12/12 09:33:56;;;;;;;94.35;24.88;;;;;;;;;;4954427;28;20051;-73
2021/12/12 09:36:23;;;;;;;76.93;24.13;;;;;;;;;;4938292;29;20462;-73
2021/12/12 09:38:59;;;;;;;89.35;25.35;;;7.10;99.90;;;;;;4937913;29;20396;-69
2021/12/12 09:41:46;;;;;;;83.57;24.05;;;7.70;99.90;;;;;;4970121;28;20504;-69
2021/12/12 09:44:14;;;;;;;92.05;24.95;;;;;;;;;;4938341;28;20058;-69
2021/12/12 09:46:45;;;;;;;80.82;25.05;;;;;;;;;;4938142;29;20046;-69
2021/12/12 09:52:10;;;;;;;85.68;24.65;;;7.60;99.90;;;;;;4970047;28;20101;-70
2021/12/12 09:55:07;;;;;;;117.20;26.27;;;7.50;99.90;;;;;;4954044;28;20368;-69
2021/12/12 09:57:33;;;;;;;92.05;26.20;;;;;;;;;;4950857;28;20055;-69
2021/12/12 10:00:15;;;;;;;83.40;26.42;;;7.50;99.90;;;;;;4953834;28;20099;-69
2021/12/12 10:02:41;;;;;;;85.07;25.07;;;;;;;;;;4953961;29;20048;-69
2021/12/12 10:06:04;;;;;;;90.85;26.02;;;7.80;99.90;;;;;;4953992;28;20046;-69
2021/12/12 10:08:39;;;;;;;77.47;23.23;;;;;;;;;;4918214;29;20066;-69
2021/12/12 10:11:11;;;;;;;97.38;25.60;;;7.70;99.90;;;;;;4953827;28;20425;-69
2021/12/12 10:14:03;;;;;;;89.53;24.15;;;7.80;99.90;;;;;;4953757;28;20054;-70
2021/12/12 10:16:49;;;;;;;86.32;24.35;;;7.80;99.90;;;;;;4955560;28;20051;-69
2021/12/12 10:19:21;;;;;;;94.05;24.88;;;;;;;;;;4957564;28;20039;-70
2021/12/12 10:22:05;;;;;;;74.70;23.23;;;7.70;99.90;;;;;;4957411;29;20373;-69
2021/12/12 10:24:35;;;;;;;80.53;22.02;;;7.60;99.90;;;;;;4957230;28;20039;-69
2021/12/12 10:27:12;;;;;;;69.68;22.42;;;8.10;99.90;;;;;;4957316;28;20071;-69
2021/12/12 10:29:54;;;;;;;79.07;22.65;;;;;;;;;;4941540;29;20051;-69
2021/12/12 10:32:24;;;;;;;69.20;23.33;;;7.90;99.90;;;;;;4957425;29;20047;-69
2021/12/12 10:34:59;;;;;;;76.68;22.63;;;7.90;99.90;;;;;;4957306;28;20377;-69
2021/12/12 10:37:28;;;;;;;67.72;20.65;;;8.10;99.90;;;;;;4941406;29;20047;-69
2021/12/12 10:40:09;;;;;;;62.97;20.05;;;7.90;99.90;;;;;;4956816;28;20496;-69
2021/12/12 10:42:46;;;;;;;71.10;20.55;;;8.00;99.90;;;;;;4957186;29;20043;-69
2021/12/12 10:45:29;;;;;;;56.67;19.33;;;8.00;99.90;;;;;;4956931;28;20174;-69
2021/12/12 10:48:05;;;;;;;58.00;17.38;;;;;;;;;;4957414;28;20489;-69
2021/12/12 10:50:31;;;;;;;55.45;18.02;;;;;;;;;;4957288;29;20558;-69
2021/12/12 10:53:06;;;;;;;51.72;16.45;;;8.00;99.90;;;;;;4956920;29;20125;-69
2021/12/12 10:55:32;;;;;;;48.25;16.63;;;;;;;;;;4956771;28;20043;-69
2021/12/12 10:58:15;;;;;;;41.05;16.02;;;8.40;99.90;;;;;;4956766;29;20050;-69
2021/12/12 11:00:47;;;;;;;43.38;13.77;;;8.40;99.90;;;;;;4957006;28;20054;-69
2021/12/12 11:03:26;;;;;;;41.85;14.15;;;9.10;99.90;;;;;;4957072;28;20506;-69
2021/12/12 11:06:01;;;;;;;35.90;12.85;;;8.30;99.90;;;;;;4940591;29;20042;-69
2021/12/12 11:08:39;;;;;;;35.55;11.27;;;8.50;99.90;;;;;;4956835;28;20407;-69
2021/12/12 11:11:17;;;;;;;34.88;12.65;;;8.50;99.90;;;;;;4956534;28;20574;-69
2021/12/12 11:13:50;;;;;;;31.38;10.88;;;8.50;99.90;;;;;;4956446;28;20177;-70
2021/12/12 11:16:30;;;;;;;27.25;9.77;;;8.90;99.90;;;;;;4956469;29;20047;-69
2021/12/12 11:19:15;;;;;;;24.17;9.63;;;8.80;99.90;;;;;;4956353;28;20050;-69
2021/12/12 11:21:47;;;;;;;23.50;9.32;;;8.50;99.90;;;;;;4956591;29;20072;-69
2021/12/12 11:24:27;;;;;;;20.45;9.07;;;8.60;99.90;;;;;;4956217;28;20087;-69
2021/12/12 11:26:58;;;;;;;22.90;9.30;;;8.90;99.90;;;;;;4972488;28;20047;-69
2021/12/12 11:29:35;;;;;;;19.45;8.38;;;8.70;99.90;;;;;;4940046;29;20055;-69
2021/12/12 11:32:07;;;;;;;25.95;10.00;;;8.80;99.90;;;;;;4956476;28;20047;-69
2021/12/12 11:34:34;;;;;;;23.42;9.15;;;9.60;99.90;;;;;;4956157;28;20054;-69
2021/12/12 11:37:18;;;;;;;24.48;9.15;;;9.80;99.90;;;;;;4956531;28;20101;-69
2021/12/12 11:40:05;;;;;;;18.98;8.38;;;9.50;99.90;;;;;;4955674;28;20519;-69
2021/12/12 11:42:52;;;;;;;23.33;8.38;;;9.10;99.90;;;;;;4939957;29;20047;-69
2021/12/12 11:45:29;;;;;;;18.88;8.48;;;9.10;99.90;;;;;;4955883;28;20047;-69
2021/12/12 11:48:13;;;;;;;20.67;9.07;;;9.10;99.90;;;;;;4956045;28;20070;-69
2021/12/12 11:50:46;;;;;;;16.33;7.97;;;8.60;99.90;;;;;;4955862;29;20047;-69
2021/12/12 11:53:18;;;;;;;22.55;8.57;;;8.60;99.90;;;;;;4956203;28;20046;-69
2021/12/12 11:55:44;;;;;;;22.92;9.07;;;9.40;99.90;;;;;;4955977;28;20053;-69
2021/12/12 11:58:37;;;;;;;24.85;9.63;;;9.80;99.90;;;;;;4955884;29;20445;-69
2021/12/12 12:01:24;;;;;;;28.58;9.77;;;9.30;99.90;;;;;;4955587;29;20050;-69
2021/12/12 12:04:14;;;;;;;25.17;9.13;;;9.70;99.90;;;;;;4955507;28;20460;-69
2021/12/12 12:07:04;;;;;;;18.95;9.00;;;10.10;99.90;;;;;;4955479;28;20050;-69
2021/12/12 12:10:05;;;;;;;23.98;8.65;;;9.40;99.90;;;;;;4955494;29;20047;-69
2021/12/12 12:13:05;;;;;;;26.17;9.30;;;9.30;99.90;;;;;;4955606;29;20211;-69
2021/12/12 12:15:57;;;;;;;29.27;9.32;;;9.40;99.90;;;;;;4939536;29;20086;-69
2021/12/12 12:18:41;;;;;;;22.30;8.60;;;9.20;99.90;;;;;;4955327;28;20062;-70
2021/12/12 12:21:21;;;;;;;26.27;9.35;;;9.50;99.90;;;;;;4955536;29;20043;-69
2021/12/12 12:30:00;;;;;;;26.48;9.27;;;9.40;99.90;;;;;;4971193;28;20134;-69
2021/12/12 12:32:56;;;;;;;25.83;9.55;;;9.80;99.90;;;;;;4941428;28;20109;-69
2021/12/12 12:35:50;;;;;;;25.80;8.60;;;10.30;99.90;;;;;;4938902;29;20043;-69
2021/12/12 12:38:54;;;;;;;24.00;9.63;;;9.90;99.90;;;;;;4955009;29;20043;-69
2021/12/12 12:41:56;;;;;;;27.17;9.35;;;9.80;99.90;;;;;;4954985;28;20607;-69
2021/12/12 12:44:31;;;;;;;31.48;8.98;;;;;;;;;;4955864;28;20130;-69
2021/12/12 12:47:34;;;;;;;36.67;10.00;;;9.80;99.90;;;;;;4954851;28;20122;-69
2021/12/12 12:50:38;;;;;;;29.17;9.65;;;9.80;99.90;;;;;;4955088;28;20050;-69
2021/12/12 12:53:52;;;;;;;31.33;9.98;;;9.80;99.90;;;;;;4938673;29;20051;-69
2021/12/12 12:56:24;;;;;;;31.05;9.40;;;;;;;;;;4943154;29;20054;-73
2021/12/12 12:59:24;;;;;;;30.77;10.25;;;9.90;99.90;;;;;;4935492;29;20048;-71
2021/12/12 13:01:57;;;;;;;27.95;9.80;;;9.80;99.90;;;;;;4935508;29;20493;-71
2021/12/12 13:04:30;;;;;;;29.58;9.50;;;9.80;99.90;;;;;;4939340;28;20035;-71
2021/12/12 13:06:57;;;;;;;30.85;9.52;;;;;;;;;;4936676;28;20134;-71
2021/12/12 13:09:45;;;;;;;35.97;9.88;;;8.80;99.90;;;;;;4954167;28;20054;-70
2021/12/12 13:12:33;;;;;;;31.75;9.73;;;9.90;99.90;;;;;;4954324;28;20035;-70
2021/12/12 13:15:03;;;;;;;45.22;9.90;;;;;;;;;;4954536;29;20051;-69
2021/12/12 13:17:52;;;;;;;44.65;10.57;;;9.70;99.90;;;;;;4952875;28;20050;-69
2021/12/12 13:20:30;;;;;;;45.17;10.65;;;10.00;99.90;;;;;;4954840;28;20725;-69
2021/12/12 13:23:12;;;;;;;43.50;10.13;;;10.70;99.90;;;;;;4973043;28;20039;-70
2021/12/12 13:25:55;;;;;;;47.78;10.60;;;9.90;99.90;;;;;;4970697;28;20047;-69
2021/12/12 13:28:51;;;;;;;35.65;9.98;;;9.40;99.90;;;;;;4934003;29;20052;-70
2021/12/12 13:31:39;;;;;;;35.58;9.20;;;9.90;99.90;;;;;;4946882;28;20511;-69
2021/12/12 13:34:05;;;;;;;37.22;9.25;;;;;;;;;;4953962;29;20082;-69
2021/12/12 13:36:51;;;;;;;28.77;8.85;;;10.40;99.90;;;;;;4946331;29;20091;-69
2021/12/12 13:39:17;;;;;;;39.90;9.30;;;;;;;;;;4934755;29;20068;-69
2021/12/12 13:42:08;;;;;;;47.47;10.38;;;9.30;99.90;;;;;;4936727;28;20039;-69
2021/12/12 13:45:07;;;;;;;33.90;10.88;;;10.50;99.90;;;;;;4954204;29;20506;-69
2021/12/12 13:47:37;;;;;;;32.38;10.45;;;;;;;;;;4952395;29;20043;-69
2021/12/12 13:50:07;;;;;;;37.05;10.75;;;10.00;99.90;;;;;;4954029;28;20488;-69
2021/12/12 13:52:36;;;;;;;33.00;11.25;;;10.60;99.90;;;;;;4957606;29;20042;-69
2021/12/12 13:55:32;;;;;;;38.05;10.80;;;10.10;99.90;;;;;;4942201;29;20400;-69
2021/12/12 13:58:09;;;;;;;31.75;10.38;;;10.30;99.90;;;;;;4939562;29;20035;-69